createdAt,value
2017-04-25T00:00:36.737Z,994.7
2017-04-25T00:01:17.274Z,994.68
2017-04-25T00:01:57.782Z,994.7
2017-04-25T00:02:38.307Z,994.72
2017-04-25T00:03:18.825Z,994.72
2017-04-25T00:03:59.339Z,994.74
2017-04-25T00:04:39.868Z,994.74
2017-04-25T00:05:20.384Z,994.72
2017-04-25T00:06:00.914Z,994.74
2017-04-25T00:06:41.459Z,994.76
2017-04-25T00:07:21.952Z,994.76
2017-04-25T00:08:02.473Z,994.78
2017-04-25T00:08:42.995Z,994.73
2017-04-25T00:09:23.511Z,994.74
2017-04-25T00:10:04.032Z,994.74
2017-04-25T00:10:44.551Z,994.76
2017-04-25T00:11:25.057Z,994.76
2017-04-25T00:12:05.584Z,994.76
2017-04-25T00:12:46.096Z,994.81
2017-04-25T00:13:26.683Z,994.82
2017-04-25T00:14:07.179Z,994.79
2017-04-25T00:14:47.702Z,994.78
2017-04-25T00:15:28.219Z,994.78
2017-04-25T00:16:08.749Z,994.71
2017-04-25T00:16:49.262Z,994.73
2017-04-25T00:17:29.799Z,994.71
2017-04-25T00:18:10.323Z,994.69
2017-04-25T00:18:50.849Z,994.69
2017-04-25T00:19:31.366Z,994.65
2017-04-25T00:20:11.879Z,994.62
2017-04-25T00:20:52.406Z,994.64
2017-04-25T00:21:32.921Z,994.63
2017-04-25T00:22:13.450Z,994.65
2017-04-25T00:22:53.967Z,994.7
2017-04-25T00:23:34.501Z,994.65
2017-04-25T00:24:15.011Z,994.66
2017-04-25T00:24:55.539Z,994.63
2017-04-25T00:25:36.052Z,994.61
2017-04-25T00:26:16.576Z,994.62
2017-04-25T00:26:57.111Z,994.61
2017-04-25T00:27:37.632Z,994.6
2017-04-25T00:28:18.152Z,994.59
2017-04-25T00:28:58.668Z,994.63
2017-04-25T00:29:39.187Z,994.61
2017-04-25T00:30:19.756Z,994.57
2017-04-25T00:31:00.282Z,994.57
2017-04-25T00:31:40.798Z,994.54
2017-04-25T00:32:21.320Z,994.54
2017-04-25T00:33:01.844Z,994.56
2017-04-25T00:33:42.395Z,994.59
2017-04-25T00:34:22.923Z,994.55
2017-04-25T00:35:03.435Z,994.56
2017-04-25T00:35:43.952Z,994.58
2017-04-25T00:36:24.457Z,994.59
2017-04-25T00:37:04.976Z,994.59
2017-04-25T00:37:45.507Z,994.52
2017-04-25T00:38:26.027Z,994.55
2017-04-25T00:39:06.557Z,994.52
2017-04-25T00:39:47.090Z,994.5
2017-04-25T00:40:27.616Z,994.46
2017-04-25T00:41:08.153Z,994.48
2017-04-25T00:41:48.674Z,994.45
2017-04-25T00:42:29.195Z,994.47
2017-04-25T00:43:09.730Z,994.52
2017-04-25T00:43:50.250Z,994.49
2017-04-25T00:44:30.766Z,994.52
2017-04-25T00:45:11.288Z,994.54
2017-04-25T00:45:51.806Z,994.53
2017-04-25T00:46:32.325Z,994.52
2017-04-25T00:47:12.856Z,994.51
2017-04-25T00:47:53.376Z,994.53
2017-04-25T00:48:33.887Z,994.53
2017-04-25T00:49:14.423Z,994.57
2017-04-25T00:49:54.948Z,994.57
2017-04-25T00:50:35.475Z,994.55
2017-04-25T00:51:15.988Z,994.51
2017-04-25T00:51:56.513Z,994.54
2017-04-25T00:52:37.033Z,994.54
2017-04-25T00:53:17.600Z,994.56
2017-04-25T00:53:58.129Z,994.55
2017-04-25T00:54:38.655Z,994.58
2017-04-25T00:55:19.164Z,994.56
2017-04-25T00:55:59.683Z,994.58
2017-04-25T00:56:40.196Z,994.56
2017-04-25T00:57:20.724Z,994.55
2017-04-25T00:58:01.247Z,994.57
2017-04-25T00:58:41.753Z,994.59
2017-04-25T00:59:22.279Z,994.57
2017-04-25T01:00:02.796Z,994.58
2017-04-25T01:00:43.310Z,994.57
2017-04-25T01:01:23.839Z,994.54
2017-04-25T01:02:04.360Z,994.56
2017-04-25T01:02:44.882Z,994.64
2017-04-25T01:03:25.398Z,994.58
2017-04-25T01:04:05.918Z,994.56
2017-04-25T01:04:46.450Z,994.57
2017-04-25T01:05:26.962Z,994.51
2017-04-25T01:06:07.512Z,994.56
2017-04-25T01:06:48.040Z,994.51
2017-04-25T01:07:28.555Z,994.52
2017-04-25T01:08:09.071Z,994.51
2017-04-25T01:08:49.599Z,994.51
2017-04-25T01:09:30.139Z,994.51
2017-04-25T01:10:10.653Z,994.53
2017-04-25T01:10:51.178Z,994.53
2017-04-25T01:11:31.701Z,994.53
2017-04-25T01:12:12.229Z,994.51
2017-04-25T01:12:52.747Z,994.49
2017-04-25T01:13:33.267Z,994.44
2017-04-25T01:14:13.821Z,994.47
2017-04-25T01:14:54.339Z,994.49
2017-04-25T01:15:34.858Z,994.48
2017-04-25T01:16:15.382Z,994.45
2017-04-25T01:16:55.901Z,994.44
2017-04-25T01:17:36.426Z,994.49
2017-04-25T01:18:16.952Z,994.46
2017-04-25T01:18:57.497Z,994.43
2017-04-25T01:19:38.015Z,994.52
2017-04-25T01:20:18.535Z,994.5
2017-04-25T01:20:59.058Z,994.46
2017-04-25T01:21:39.577Z,994.5
2017-04-25T01:22:20.106Z,994.48
2017-04-25T01:23:00.634Z,994.49
2017-04-25T01:23:41.153Z,994.48
2017-04-25T01:24:23.388Z,994.48
2017-04-25T01:25:03.908Z,994.48
2017-04-25T01:25:44.438Z,994.48
2017-04-25T01:26:24.961Z,994.53
2017-04-25T01:27:05.485Z,994.51
2017-04-25T01:27:45.993Z,994.5
2017-04-25T01:28:26.516Z,994.5
2017-04-25T01:29:07.048Z,994.52
2017-04-25T01:29:47.573Z,994.53
2017-04-25T01:30:28.089Z,994.52
2017-04-25T01:31:08.614Z,994.51
2017-04-25T01:31:49.136Z,994.52
2017-04-25T01:32:29.660Z,994.48
2017-04-25T01:33:10.174Z,994.5
2017-04-25T01:33:50.697Z,994.49
2017-04-25T01:34:31.216Z,994.52
2017-04-25T01:35:11.754Z,994.46
2017-04-25T01:35:52.278Z,994.49
2017-04-25T01:36:32.800Z,994.41
2017-04-25T01:37:13.326Z,994.43
2017-04-25T01:37:53.838Z,994.4
2017-04-25T01:38:34.350Z,994.39
2017-04-25T01:39:14.888Z,994.4
2017-04-25T01:39:55.413Z,994.38
2017-04-25T01:40:35.908Z,994.37
2017-04-25T01:41:16.432Z,994.39
2017-04-25T01:41:56.953Z,994.39
2017-04-25T01:42:37.489Z,994.39
2017-04-25T01:43:18.012Z,994.42
2017-04-25T01:43:58.529Z,994.32
2017-04-25T01:44:39.051Z,994.33
2017-04-25T01:45:19.570Z,994.36
2017-04-25T01:46:00.080Z,994.34
2017-04-25T01:46:40.598Z,994.32
2017-04-25T01:47:21.119Z,994.32
2017-04-25T01:48:01.661Z,994.3
2017-04-25T01:48:42.157Z,994.38
2017-04-25T01:51:10.669Z,994.32
2017-04-25T01:51:51.185Z,994.34
2017-04-25T01:52:31.698Z,994.33
2017-04-25T01:53:12.215Z,994.34
2017-04-25T01:53:52.736Z,994.29
2017-04-25T01:54:33.257Z,994.33
2017-04-25T01:55:13.771Z,994.26
2017-04-25T01:55:54.291Z,994.26
2017-04-25T01:56:34.811Z,994.31
2017-04-25T01:57:15.335Z,994.28
2017-04-25T01:57:55.855Z,994.31
2017-04-25T01:58:36.360Z,994.27
2017-04-25T01:59:16.860Z,994.34
2017-04-25T01:59:57.375Z,994.31
2017-04-25T02:00:37.900Z,994.29
2017-04-25T02:01:18.432Z,994.27
2017-04-25T02:01:58.944Z,994.29
2017-04-25T02:02:39.459Z,994.29
2017-04-25T02:03:19.991Z,994.33
2017-04-25T02:04:00.519Z,994.27
2017-04-25T02:04:41.029Z,994.3
2017-04-25T02:05:21.550Z,994.33
2017-04-25T02:06:02.060Z,994.31
2017-04-25T02:06:42.577Z,994.35
2017-04-25T02:07:23.108Z,994.29
2017-04-25T02:08:03.611Z,994.28
2017-04-25T02:08:44.131Z,994.32
2017-04-25T02:09:24.655Z,994.28
2017-04-25T02:10:05.180Z,994.26
2017-04-25T02:10:45.697Z,994.26
2017-04-25T02:11:26.224Z,994.23
2017-04-25T02:12:06.744Z,994.26
2017-04-25T02:12:47.257Z,994.25
2017-04-25T02:13:27.784Z,994.21
2017-04-25T02:14:08.321Z,994.25
2017-04-25T02:14:48.872Z,994.22
2017-04-25T02:15:29.396Z,994.24
2017-04-25T02:16:09.917Z,994.21
2017-04-25T02:16:50.431Z,994.22
2017-04-25T02:17:30.948Z,994.17
2017-04-25T02:18:11.459Z,994.16
2017-04-25T02:18:51.978Z,994.15
2017-04-25T02:19:32.499Z,994.19
2017-04-25T02:20:13.017Z,994.19
2017-04-25T02:20:53.534Z,994.23
2017-04-25T02:21:34.053Z,994.18
2017-04-25T02:22:14.563Z,994.21
2017-04-25T02:22:55.080Z,994.19
2017-04-25T02:23:35.603Z,994.2
2017-04-25T02:24:16.113Z,994.22
2017-04-25T02:24:56.634Z,994.22
2017-04-25T02:25:37.231Z,994.2
2017-04-25T02:26:17.731Z,994.18
2017-04-25T02:26:58.246Z,994.16
2017-04-25T02:27:38.774Z,994.15
2017-04-25T02:28:19.293Z,994.13
2017-04-25T02:28:59.816Z,994.17
2017-04-25T02:29:40.326Z,994.14
2017-04-25T02:30:20.858Z,994.14
2017-04-25T02:31:01.372Z,994.16
2017-04-25T02:31:41.876Z,994.17
2017-04-25T02:32:22.401Z,994.15
2017-04-25T02:33:02.927Z,994.19
2017-04-25T02:33:43.454Z,994.16
2017-04-25T02:34:23.964Z,994.2
2017-04-25T02:35:04.501Z,994.18
2017-04-25T02:35:45.016Z,994.2
2017-04-25T02:36:25.541Z,994.2
2017-04-25T02:37:06.060Z,994.16
2017-04-25T02:37:46.579Z,994.17
2017-04-25T02:38:27.101Z,994.18
2017-04-25T02:39:07.618Z,994.2
2017-04-25T02:39:48.149Z,994.22
2017-04-25T02:40:28.677Z,994.19
2017-04-25T02:41:09.217Z,994.22
2017-04-25T02:41:49.748Z,994.23
2017-04-25T02:42:30.247Z,994.17
2017-04-25T02:43:10.759Z,994.22
2017-04-25T02:43:51.297Z,994.24
2017-04-25T02:44:31.806Z,994.17
2017-04-25T02:45:12.322Z,994.2
2017-04-25T02:45:52.839Z,994.21
2017-04-25T02:46:33.339Z,994.17
2017-04-25T02:47:13.862Z,994.15
2017-04-25T02:47:54.383Z,994.18
2017-04-25T02:48:34.898Z,994.19
2017-04-25T02:49:15.416Z,994.2
2017-04-25T02:49:55.923Z,994.18
2017-04-25T02:50:36.443Z,994.24
2017-04-25T02:51:16.960Z,994.23
2017-04-25T02:51:57.490Z,994.2
2017-04-25T02:52:38.009Z,994.23
2017-04-25T02:53:18.527Z,994.21
2017-04-25T02:53:59.097Z,994.19
2017-04-25T02:54:39.630Z,994.21
2017-04-25T02:55:20.156Z,994.16
2017-04-25T02:56:00.706Z,994.19
2017-04-25T02:56:41.218Z,994.19
2017-04-25T02:57:21.747Z,994.19
2017-04-25T02:58:02.260Z,994.17
2017-04-25T02:58:42.790Z,994.13
2017-04-25T02:59:23.301Z,994.09
2017-04-25T03:00:03.818Z,994.15
2017-04-25T03:00:44.318Z,994.17
2017-04-25T03:01:24.843Z,994.14
2017-04-25T03:02:05.356Z,994.13
2017-04-25T03:02:45.871Z,994.15
2017-04-25T03:03:26.398Z,994.11
2017-04-25T03:04:06.912Z,994.13
2017-04-25T03:04:47.422Z,994.1
2017-04-25T03:05:27.939Z,994.14
2017-04-25T03:06:08.463Z,994.09
2017-04-25T03:06:48.985Z,994.11
2017-04-25T03:07:29.500Z,994.12
2017-04-25T03:08:10.015Z,994.14
2017-04-25T03:08:50.531Z,994.09
2017-04-25T03:09:31.060Z,994.12
2017-04-25T03:10:11.585Z,994.1
2017-04-25T03:10:52.112Z,994.09
2017-04-25T03:11:32.637Z,994.07
2017-04-25T03:12:13.162Z,994.12
2017-04-25T03:12:53.680Z,994.1
2017-04-25T03:13:34.213Z,994.11
2017-04-25T03:14:14.745Z,994.08
2017-04-25T03:14:55.343Z,994.07
2017-04-25T03:15:35.865Z,994.09
2017-04-25T03:16:16.385Z,994.11
2017-04-25T03:16:57.000Z,994.04
2017-04-25T03:17:37.526Z,994.07
2017-04-25T03:18:18.050Z,994.06
2017-04-25T03:18:58.572Z,994.12
2017-04-25T03:19:39.090Z,994.06
2017-04-25T03:20:19.618Z,994.06
2017-04-25T03:21:00.146Z,994.05
2017-04-25T03:21:40.670Z,994.06
2017-04-25T03:22:21.195Z,994.09
2017-04-25T03:23:01.710Z,994.08
2017-04-25T03:23:42.230Z,994.04
2017-04-25T03:24:22.770Z,994.13
2017-04-25T03:25:03.283Z,994.02
2017-04-25T03:25:43.819Z,994.1
2017-04-25T03:26:24.351Z,994.13
2017-04-25T03:27:04.937Z,994.11
2017-04-25T03:27:45.478Z,994.13
2017-04-25T03:28:26.005Z,994.13
2017-04-25T03:29:06.528Z,994.11
2017-04-25T03:29:47.051Z,994.07
2017-04-25T03:30:27.577Z,994.03
2017-04-25T03:31:08.083Z,994.11
2017-04-25T03:31:48.597Z,994.06
2017-04-25T03:32:29.144Z,994.01
2017-04-25T03:33:09.644Z,993.99
2017-04-25T03:33:50.163Z,994
2017-04-25T03:34:30.684Z,994
2017-04-25T03:35:11.193Z,993.94
2017-04-25T03:35:51.706Z,993.94
2017-04-25T03:36:32.281Z,993.95
2017-04-25T03:37:12.794Z,993.93
2017-04-25T03:37:53.308Z,993.94
2017-04-25T03:38:33.843Z,993.9
2017-04-25T03:39:14.376Z,993.91
2017-04-25T03:39:54.902Z,993.9
2017-04-25T03:40:35.423Z,993.95
2017-04-25T03:41:15.951Z,993.98
2017-04-25T03:41:56.473Z,993.97
2017-04-25T03:42:36.990Z,993.97
2017-04-25T03:43:17.506Z,993.97
2017-04-25T03:43:58.030Z,993.99
2017-04-25T03:44:38.555Z,993.94
2017-04-25T03:45:19.078Z,993.96
2017-04-25T03:45:59.598Z,993.96
2017-04-25T03:46:40.173Z,993.95
2017-04-25T03:47:20.694Z,993.97
2017-04-25T03:48:01.219Z,994
2017-04-25T03:48:41.740Z,994.01
2017-04-25T03:49:22.259Z,994.02
2017-04-25T03:50:02.775Z,994
2017-04-25T03:50:43.291Z,994
2017-04-25T03:51:23.805Z,993.99
2017-04-25T03:52:04.328Z,994
2017-04-25T03:52:45.003Z,993.99
2017-04-25T03:53:25.517Z,994.05
2017-04-25T03:54:06.034Z,994.07
2017-04-25T03:54:46.558Z,994.04
2017-04-25T03:55:27.080Z,994.04
2017-04-25T03:56:07.604Z,994.1
2017-04-25T03:56:48.126Z,994.06
2017-04-25T03:57:28.646Z,994.09
2017-04-25T03:58:09.169Z,994.08
2017-04-25T03:58:49.691Z,994.07
2017-04-25T03:59:30.230Z,994.06
2017-04-25T04:00:10.745Z,994.1
2017-04-25T04:00:51.266Z,994.08
2017-04-25T04:01:31.780Z,994.1
2017-04-25T04:02:12.318Z,994.14
2017-04-25T04:02:52.844Z,994.16
2017-04-25T04:03:33.374Z,994.12
2017-04-25T04:04:13.896Z,994.2
2017-04-25T04:04:54.410Z,994.21
2017-04-25T04:05:34.935Z,994.17
2017-04-25T04:06:15.434Z,994.2
2017-04-25T04:06:55.959Z,994.16
2017-04-25T04:07:36.484Z,994.21
2017-04-25T04:08:17.006Z,994.19
2017-04-25T04:08:57.546Z,994.19
2017-04-25T04:09:38.051Z,994.15
2017-04-25T04:10:18.578Z,994.19
2017-04-25T04:10:59.089Z,994.19
2017-04-25T04:11:39.610Z,994.2
2017-04-25T04:12:20.125Z,994.19
2017-04-25T04:13:00.654Z,994.22
2017-04-25T04:13:41.169Z,994.2
2017-04-25T04:14:21.681Z,994.23
2017-04-25T04:15:02.222Z,994.21
2017-04-25T04:15:42.721Z,994.25
2017-04-25T04:16:23.291Z,994.27
2017-04-25T04:17:03.721Z,994.25
2017-04-25T04:17:44.248Z,994.26
2017-04-25T04:18:24.769Z,994.25
2017-04-25T04:19:05.274Z,994.25
2017-04-25T04:19:45.805Z,994.29
2017-04-25T04:20:26.322Z,994.23
2017-04-25T04:21:06.832Z,994.28
2017-04-25T04:21:47.350Z,994.29
2017-04-25T04:22:27.890Z,994.29
2017-04-25T04:23:08.464Z,994.27
2017-04-25T04:23:48.998Z,994.28
2017-04-25T04:24:29.529Z,994.29
2017-04-25T04:25:10.058Z,994.29
2017-04-25T04:25:50.556Z,994.31
2017-04-25T04:26:31.138Z,994.27
2017-04-25T04:27:11.661Z,994.28
2017-04-25T04:27:52.182Z,994.23
2017-04-25T04:28:32.695Z,994.22
2017-04-25T04:29:13.214Z,994.25
2017-04-25T04:29:53.725Z,994.28
2017-04-25T04:30:34.334Z,994.28
2017-04-25T04:31:14.767Z,994.28
2017-04-25T04:31:55.238Z,994.29
2017-04-25T04:32:35.695Z,994.32
2017-04-25T04:33:16.207Z,994.27
2017-04-25T04:33:56.707Z,994.31
2017-04-25T04:34:37.174Z,994.35
2017-04-25T04:35:17.683Z,994.35
2017-04-25T04:35:58.150Z,994.36
2017-04-25T04:36:38.670Z,994.34
2017-04-25T04:37:19.181Z,994.35
2017-04-25T04:37:59.712Z,994.38
2017-04-25T04:38:40.239Z,994.38
2017-04-25T04:39:20.762Z,994.4
2017-04-25T04:40:01.278Z,994.38
2017-04-25T04:40:41.826Z,994.34
2017-04-25T04:41:22.351Z,994.35
2017-04-25T04:42:02.875Z,994.34
2017-04-25T04:42:43.395Z,994.37
2017-04-25T04:43:23.910Z,994.36
2017-04-25T04:44:04.417Z,994.36
2017-04-25T04:44:44.939Z,994.32
2017-04-25T04:45:25.463Z,994.34
2017-04-25T04:46:05.980Z,994.35
2017-04-25T04:46:46.542Z,994.39
2017-04-25T04:47:27.089Z,994.32
2017-04-25T04:48:07.611Z,994.36
2017-04-25T04:48:48.121Z,994.37
2017-04-25T04:49:28.647Z,994.39
2017-04-25T04:50:09.161Z,994.39
2017-04-25T04:50:49.696Z,994.39
2017-04-25T04:51:30.228Z,994.42
2017-04-25T04:52:10.733Z,994.38
2017-04-25T04:52:51.260Z,994.4
2017-04-25T04:53:31.775Z,994.35
2017-04-25T04:54:12.301Z,994.39
2017-04-25T04:54:52.817Z,994.37
2017-04-25T04:55:33.335Z,994.36
2017-04-25T04:56:13.858Z,994.43
2017-04-25T04:56:54.400Z,994.4
2017-04-25T04:57:34.920Z,994.38
2017-04-25T04:58:15.443Z,994.35
2017-04-25T04:58:55.968Z,994.42
2017-04-25T04:59:36.480Z,994.41
2017-04-25T05:00:17.003Z,994.4
2017-04-25T05:00:57.524Z,994.42
2017-04-25T05:01:38.053Z,994.45
2017-04-25T05:02:18.571Z,994.43
2017-04-25T05:02:59.115Z,994.44
2017-04-25T05:03:39.644Z,994.43
2017-04-25T05:04:20.174Z,994.49
2017-04-25T05:05:00.694Z,994.43
2017-04-25T05:05:41.222Z,994.45
2017-04-25T05:06:21.742Z,994.42
2017-04-25T05:07:02.348Z,994.46
2017-04-25T05:07:42.836Z,994.46
2017-04-25T05:08:23.379Z,994.49
2017-04-25T05:09:03.901Z,994.47
2017-04-25T05:09:44.426Z,994.42
2017-04-25T05:10:24.980Z,994.46
2017-04-25T05:11:05.502Z,994.39
2017-04-25T05:11:46.034Z,994.44
2017-04-25T05:12:26.560Z,994.43
2017-04-25T05:13:07.081Z,994.43
2017-04-25T05:13:47.609Z,994.4
2017-04-25T05:14:28.131Z,994.44
2017-04-25T05:15:08.834Z,994.37
2017-04-25T05:15:49.370Z,994.42
2017-04-25T05:16:29.884Z,994.43
2017-04-25T05:17:10.410Z,994.37
2017-04-25T05:17:50.949Z,994.44
2017-04-25T05:18:31.476Z,994.38
2017-04-25T05:19:12.003Z,994.38
2017-04-25T05:19:52.515Z,994.38
2017-04-25T05:20:33.043Z,994.42
2017-04-25T05:21:13.568Z,994.45
2017-04-25T05:21:54.112Z,994.43
2017-04-25T05:22:34.627Z,994.39
2017-04-25T05:23:15.155Z,994.44
2017-04-25T05:23:55.674Z,994.44
2017-04-25T05:24:36.196Z,994.4
2017-04-25T05:25:16.718Z,994.41
2017-04-25T05:25:57.227Z,994.48
2017-04-25T05:26:37.745Z,994.49
2017-04-25T05:27:18.244Z,994.41
2017-04-25T05:27:58.774Z,994.45
2017-04-25T05:28:39.299Z,994.46
2017-04-25T05:29:20.018Z,994.45
2017-04-25T05:30:00.524Z,994.46
2017-04-25T05:30:41.061Z,994.43
2017-04-25T05:31:21.570Z,994.44
2017-04-25T05:32:02.228Z,994.45
2017-04-25T05:32:42.533Z,994.47
2017-04-25T05:33:23.046Z,994.48
2017-04-25T05:34:03.532Z,994.51
2017-04-25T05:34:44.044Z,994.54
2017-04-25T05:35:24.561Z,994.52
2017-04-25T05:36:05.093Z,994.51
2017-04-25T05:36:45.553Z,994.51
2017-04-25T05:37:26.140Z,994.53
2017-04-25T05:38:06.653Z,994.53
2017-04-25T05:38:47.144Z,994.5
2017-04-25T05:39:27.664Z,994.51
2017-04-25T05:40:08.171Z,994.53
2017-04-25T05:40:49.022Z,994.5
2017-04-25T05:41:29.509Z,994.52
2017-04-25T05:42:10.008Z,994.48
2017-04-25T05:42:50.524Z,994.53
2017-04-25T05:43:31.033Z,994.55
2017-04-25T05:44:11.486Z,994.55
2017-04-25T05:44:51.979Z,994.59
2017-04-25T05:45:32.480Z,994.58
2017-04-25T05:46:13.023Z,994.6
2017-04-25T05:46:53.473Z,994.63
2017-04-25T05:47:34.044Z,994.6
2017-04-25T05:48:14.590Z,994.57
2017-04-25T05:48:55.081Z,994.64
2017-04-25T05:49:35.606Z,994.6
2017-04-25T05:50:16.113Z,994.65
2017-04-25T05:50:56.679Z,994.6
2017-04-25T05:51:37.452Z,994.61
2017-04-25T05:52:17.994Z,994.68
2017-04-25T05:52:58.454Z,994.67
2017-04-25T05:53:39.070Z,994.71
2017-04-25T05:54:19.507Z,994.66
2017-04-25T05:55:00.167Z,994.63
2017-04-25T05:55:40.708Z,994.66
2017-04-25T05:56:21.187Z,994.62
2017-04-25T05:59:45.106Z,994.64
2017-04-25T06:00:25.562Z,994.64
2017-04-25T06:01:06.078Z,994.61
2017-04-25T06:01:46.594Z,994.62
2017-04-25T06:02:27.109Z,994.6
2017-04-25T06:03:07.635Z,994.59
2017-04-25T06:03:48.143Z,994.66
2017-04-25T06:04:28.666Z,994.58
2017-04-25T06:05:09.185Z,994.62
2017-04-25T06:05:49.713Z,994.59
2017-04-25T06:06:30.227Z,994.62
2017-04-25T06:07:10.754Z,994.61
2017-04-25T06:07:51.278Z,994.6
2017-04-25T06:08:31.798Z,994.62
2017-04-25T06:09:12.265Z,994.61
2017-04-25T06:09:52.768Z,994.61
2017-04-25T06:10:33.271Z,994.63
2017-04-25T06:11:13.795Z,994.65
2017-04-25T06:11:54.307Z,994.67
2017-04-25T06:12:34.820Z,994.7
2017-04-25T06:13:15.342Z,994.73
2017-04-25T06:13:55.860Z,994.71
2017-04-25T06:15:54.067Z,994.68
2017-04-25T06:16:34.579Z,994.76
2017-04-25T06:17:15.090Z,994.75
2017-04-25T06:17:55.629Z,994.78
2017-04-25T06:18:36.191Z,994.76
2017-04-25T06:19:16.712Z,994.78
2017-04-25T06:19:57.249Z,994.78
2017-04-25T06:20:37.774Z,994.77
2017-04-25T06:21:18.300Z,994.78
2017-04-25T06:21:58.812Z,994.82
2017-04-25T06:22:39.336Z,994.81
2017-04-25T06:23:19.847Z,994.8
2017-04-25T06:25:18.018Z,994.85
2017-04-25T06:25:58.535Z,994.8
2017-04-25T06:26:39.069Z,994.82
2017-04-25T06:27:19.609Z,994.83
2017-04-25T06:28:00.131Z,994.75
2017-04-25T06:28:50.694Z,994.77
2017-04-25T06:29:31.215Z,994.82
2017-04-25T06:30:11.796Z,994.84
2017-04-25T06:30:52.321Z,994.84
2017-04-25T06:31:32.841Z,994.83
2017-04-25T06:32:13.367Z,994.88
2017-04-25T06:32:53.954Z,994.86
2017-04-25T06:33:34.330Z,994.81
2017-04-25T06:34:14.965Z,994.87
2017-04-25T06:36:08.068Z,994.9
2017-04-25T06:36:48.609Z,994.86
2017-04-25T06:37:29.111Z,994.88
2017-04-25T06:38:09.620Z,994.88
2017-04-25T06:38:50.152Z,994.89
2017-04-25T06:39:30.674Z,994.87
2017-04-25T06:40:11.165Z,994.89
2017-04-25T06:40:51.691Z,994.93
2017-04-25T06:41:32.215Z,994.9
2017-04-25T06:42:12.721Z,994.93
2017-04-25T06:42:53.171Z,994.94
2017-04-25T06:43:33.649Z,994.9
2017-04-25T06:44:14.223Z,994.95
2017-04-25T06:44:54.740Z,994.96
2017-04-25T06:45:35.242Z,994.98
2017-04-25T06:46:15.768Z,994.92
2017-04-25T06:46:56.281Z,994.97
2017-04-25T06:47:36.801Z,994.96
2017-04-25T06:50:05.426Z,994.96
2017-04-25T06:50:45.934Z,994.95
2017-04-25T06:51:26.711Z,994.96
2017-04-25T06:52:07.412Z,994.96
2017-04-25T06:52:47.859Z,995
2017-04-25T06:53:28.716Z,995
2017-04-25T06:54:09.362Z,995.02
2017-04-25T06:54:49.867Z,995.01
2017-04-25T06:55:30.362Z,995.03
2017-04-25T06:56:10.837Z,995.05
2017-04-25T06:56:51.600Z,995.06
2017-04-25T06:57:32.234Z,995.07
2017-04-25T06:58:12.800Z,995.08
2017-04-25T06:58:53.463Z,995.05
2017-04-25T06:59:33.856Z,995.11
2017-04-25T07:00:14.485Z,995.1
2017-04-25T07:00:54.977Z,995.04
2017-04-25T07:01:35.478Z,995.08
2017-04-25T07:02:15.990Z,995.1
2017-04-25T07:02:56.502Z,995.13
2017-04-25T07:03:36.957Z,995.07
2017-04-25T07:04:17.559Z,995.1
2017-04-25T07:04:57.978Z,995.11
2017-04-25T07:05:38.443Z,995.1
2017-04-25T07:06:18.975Z,995.05
2017-04-25T07:06:59.457Z,995.04
2017-04-25T07:07:39.936Z,995.02
2017-04-25T07:08:20.442Z,995.06
2017-04-25T07:09:00.930Z,995.05
2017-04-25T07:09:41.395Z,995.06
2017-04-25T07:10:21.986Z,995.02
2017-04-25T07:11:02.499Z,995.04
2017-04-25T07:11:43.049Z,995.07
2017-04-25T07:12:23.545Z,995.1
2017-04-25T07:13:04.412Z,995.05
2017-04-25T07:13:44.941Z,995.03
2017-04-25T07:14:25.463Z,995.07
2017-04-25T07:15:05.922Z,995.07
2017-04-25T07:15:46.387Z,995.12
2017-04-25T07:16:26.852Z,995.1
2017-04-25T07:17:07.328Z,995.08
2017-04-25T07:17:47.871Z,995.08
2017-04-25T07:18:28.389Z,995.09
2017-04-25T07:19:08.849Z,995.12
2017-04-25T07:19:49.347Z,995.14
2017-04-25T07:20:29.814Z,995.12
2017-04-25T07:21:10.371Z,995.15
2017-04-25T07:21:50.860Z,995.12
2017-04-25T07:22:31.331Z,995.13
2017-04-25T07:23:11.914Z,995.11
2017-04-25T07:23:52.318Z,995.16
2017-04-25T07:24:32.802Z,995.19
2017-04-25T07:25:13.324Z,995.14
2017-04-25T07:25:53.829Z,995.13
2017-04-25T07:26:34.371Z,995.12
2017-04-25T07:27:14.823Z,995.13
2017-04-25T07:27:55.322Z,995.16
2017-04-25T07:28:35.873Z,995.13
2017-04-25T07:29:16.353Z,995.15
2017-04-25T07:29:56.837Z,995.16
2017-04-25T07:30:37.378Z,995.15
2017-04-25T07:31:18.017Z,995.15
2017-04-25T07:31:58.424Z,995.12
2017-04-25T07:32:38.946Z,995.14
2017-04-25T07:33:19.441Z,995.09
2017-04-25T07:33:59.979Z,995.04
2017-04-25T07:34:40.528Z,995.05
2017-04-25T07:35:21.038Z,995.07
2017-04-25T07:36:01.557Z,995.05
2017-04-25T07:36:42.077Z,995.07
2017-04-25T07:37:22.599Z,995.05
2017-04-25T07:38:03.091Z,995.1
2017-04-25T07:38:43.621Z,995.08
2017-04-25T07:39:24.143Z,995.07
2017-04-25T07:40:04.643Z,995.1
2017-04-25T07:40:45.170Z,995.08
2017-04-25T07:41:25.637Z,995.14
2017-04-25T07:42:06.134Z,995.12
2017-04-25T07:42:46.631Z,995.17
2017-04-25T07:43:27.138Z,995.17
2017-04-25T07:44:07.684Z,995.19
2017-04-25T07:44:48.253Z,995.16
2017-04-25T07:45:29.212Z,995.12
2017-04-25T07:46:09.603Z,995.08
2017-04-25T07:46:50.096Z,995.11
2017-04-25T07:47:30.591Z,995.14
2017-04-25T07:48:11.121Z,995.09
2017-04-25T07:48:51.604Z,995.08
2017-04-25T07:49:32.124Z,995.11
2017-04-25T07:50:12.637Z,995.09
2017-04-25T07:50:53.153Z,995.13
2017-04-25T07:51:33.666Z,995.13
2017-04-25T07:52:14.161Z,995.1
2017-04-25T07:52:54.674Z,995.1
2017-04-25T07:53:35.207Z,995.15
2017-04-25T07:54:15.726Z,995.1
2017-04-25T07:54:56.257Z,995.13
2017-04-25T07:55:36.728Z,995.11
2017-04-25T07:56:17.251Z,995.11
2017-04-25T07:56:57.712Z,995.11
2017-04-25T07:57:38.244Z,995.1
2017-04-25T07:58:18.699Z,995.12
2017-04-25T07:58:59.159Z,995.12
2017-04-25T07:59:39.648Z,995.13
2017-04-25T08:00:20.120Z,995.07
2017-04-25T08:01:00.675Z,995.12
2017-04-25T08:01:41.225Z,995.08
2017-04-25T08:02:21.662Z,995.08
2017-04-25T08:03:02.136Z,995.09
2017-04-25T08:03:42.663Z,995.14
2017-04-25T08:04:23.137Z,995.07
2017-04-25T08:05:03.811Z,995.08
2017-04-25T08:05:44.293Z,995.06
2017-04-25T08:06:24.800Z,995.01
2017-04-25T08:07:05.318Z,995.01
2017-04-25T08:07:45.847Z,994.99
2017-04-25T08:08:26.308Z,994.99
2017-04-25T08:09:06.778Z,994.96
2017-04-25T08:09:47.310Z,994.96
2017-04-25T08:10:27.798Z,995.03
2017-04-25T08:11:08.422Z,995.06
2017-04-25T08:11:48.910Z,995.08
2017-04-25T08:12:29.532Z,995.1
2017-04-25T08:13:10.020Z,995.13
2017-04-25T08:13:50.527Z,995.16
2017-04-25T08:14:31.035Z,995.12
2017-04-25T08:15:11.574Z,995.15
2017-04-25T08:15:52.110Z,995.16
2017-04-25T08:16:32.606Z,995.25
2017-04-25T08:17:13.143Z,995.24
2017-04-25T08:17:53.628Z,995.22
2017-04-25T08:18:34.132Z,995.26
2017-04-25T08:19:14.672Z,995.23
2017-04-25T08:19:55.148Z,995.16
2017-04-25T08:20:35.651Z,995.17
2017-04-25T08:21:16.171Z,995.19
2017-04-25T08:21:56.848Z,995.21
2017-04-25T08:22:37.379Z,995.18
2017-04-25T08:23:17.907Z,995.19
2017-04-25T08:23:58.417Z,995.21
2017-04-25T08:24:38.936Z,995.19
2017-04-25T08:25:19.508Z,995.2
2017-04-25T08:26:00.005Z,995.26
2017-04-25T08:26:40.500Z,995.23
2017-04-25T08:27:21.108Z,995.24
2017-04-25T08:28:01.603Z,995.2
2017-04-25T08:28:42.135Z,995.25
2017-04-25T08:29:22.607Z,995.23
2017-04-25T08:30:03.116Z,995.18
2017-04-25T08:30:43.638Z,995.26
2017-04-25T08:31:24.183Z,995.24
2017-04-25T08:32:04.694Z,995.23
2017-04-25T08:32:45.184Z,995.27
2017-04-25T08:33:25.752Z,995.28
2017-04-25T08:34:06.263Z,995.29
2017-04-25T08:34:46.773Z,995.31
2017-04-25T08:35:27.314Z,995.28
2017-04-25T08:36:07.828Z,995.36
2017-04-25T08:36:48.304Z,995.33
2017-04-25T08:37:28.810Z,995.32
2017-04-25T08:38:09.304Z,995.34